Time;durP1;ratioP1;P1;durP2;ratioP2;P2;SDS_P1;SDS_P2;PMS_P1;PMS_P2;Temp;Humidity;BMP_temperature;BMP_pressure;BME280_temperature;BME280_humidity;BME280_pressure;Samples;Min_cycle;Max_cycle;Signal;HPM_P1;HPM_P2
2021/10/22 00:00:10;;;;;;;0.80;0.50;;;6.30;99.90;;;;;;5053608;28;20185;-66
2021/10/22 00:02:41;;;;;;;0.80;0.50;;;6.20;99.90;;;;;;5053384;28;20747;-67
2021/10/22 00:05:11;;;;;;;0.80;0.50;;;6.20;99.90;;;;;;5053347;28;20195;-68
2021/10/22 00:07:39;;;;;;;0.80;0.50;;;6.20;99.90;;;;;;5053677;28;20197;-68
2021/10/22 00:10:10;;;;;;;0.80;0.50;;;6.20;99.90;;;;;;5035650;28;20208;-69
2021/10/22 00:12:39;;;;;;;0.80;0.40;;;6.20;99.90;;;;;;5053398;28;20208;-67
2021/10/22 00:15:09;;;;;;;0.80;0.50;;;6.10;99.90;;;;;;5053719;28;20613;-67
2021/10/22 00:17:38;;;;;;;0.80;0.50;;;6.10;99.90;;;;;;5053379;28;20181;-67
2021/10/22 00:20:11;;;;;;;0.80;0.60;;;6.10;99.90;;;;;;5053514;28;20231;-66
2021/10/22 00:22:40;;;;;;;0.80;0.50;;;6.10;99.90;;;;;;5055652;28;20216;-68
2021/10/22 00:25:09;;;;;;;0.80;0.60;;;6.20;99.90;;;;;;5059396;28;20184;-69
2021/10/22 00:27:38;;;;;;;0.80;0.50;;;6.20;99.90;;;;;;5059311;28;20201;-67
2021/10/22 00:30:08;;;;;;;0.80;0.50;;;6.20;99.90;;;;;;5059505;28;20650;-67
2021/10/22 00:32:36;;;;;;;0.80;0.50;;;6.20;99.90;;;;;;5042274;28;20220;-67
2021/10/22 00:35:05;;;;;;;0.80;0.50;;;6.20;99.90;;;;;;5038213;28;20199;-68
2021/10/22 00:37:33;;;;;;;0.80;0.50;;;6.20;99.90;;;;;;5052770;28;20177;-68
2021/10/22 00:40:01;;;;;;;0.80;0.50;;;6.10;99.90;;;;;;5053299;28;20181;-68
2021/10/22 00:42:33;;;;;;;0.80;0.50;;;6.20;99.90;;;;;;5052821;28;20208;-67
2021/10/22 00:45:03;;;;;;;0.80;0.50;;;6.10;99.90;;;;;;5035394;28;20189;-67
2021/10/22 00:47:31;;;;;;;1.00;0.60;;;6.10;99.90;;;;;;5052669;28;20217;-68
2021/10/22 00:49:59;;;;;;;0.80;0.50;;;6.10;99.90;;;;;;5052764;28;20649;-68
2021/10/22 00:52:30;;;;;;;0.80;0.50;;;6.10;99.90;;;;;;5052738;28;20201;-68
2021/10/22 00:54:59;;;;;;;0.80;0.50;;;6.00;99.90;;;;;;5052674;28;20645;-68
2021/10/22 00:57:28;;;;;;;0.80;0.50;;;6.00;99.90;;;;;;5052376;28;20200;-69
2021/10/22 00:59:59;;;;;;;0.80;0.50;;;5.90;99.90;;;;;;5052593;28;20161;-68
2021/10/22 01:02:27;;;;;;;0.80;0.50;;;5.90;99.90;;;;;;5033954;28;20212;-66
2021/10/22 01:04:55;;;;;;;0.90;0.70;;;5.90;99.90;;;;;;5033915;28;20193;-67
2021/10/22 01:07:24;;;;;;;0.90;0.70;;;5.90;99.90;;;;;;5052161;28;20200;-67
2021/10/22 01:09:53;;;;;;;0.80;0.47;;;5.80;99.90;;;;;;5052681;28;20682;-68
2021/10/22 01:12:21;;;;;;;0.80;0.40;;;5.80;99.90;;;;;;5034843;28;20255;-68
2021/10/22 01:14:51;;;;;;;0.80;0.50;;;5.80;99.90;;;;;;5053068;28;20219;-66
2021/10/22 01:17:36;;;;;;;1.10;0.98;;;5.90;99.90;;;;;;5034931;28;20271;-67
2021/10/22 01:20:07;;;;;;;0.80;0.50;;;5.90;99.90;;;;;;5052765;28;20715;-66
2021/10/22 01:22:37;;;;;;;0.80;0.50;;;5.90;99.90;;;;;;5052361;28;20205;-67
2021/10/22 01:25:07;;;;;;;0.80;0.50;;;5.90;99.90;;;;;;5051860;28;20235;-68
2021/10/22 01:27:36;;;;;;;0.80;0.50;;;5.90;99.90;;;;;;5051838;28;20562;-67
2021/10/22 01:30:06;;;;;;;0.80;0.50;;;5.90;99.90;;;;;;5052318;28;20204;-67
2021/10/22 01:32:35;;;;;;;1.02;0.93;;;5.90;99.90;;;;;;5052075;28;20215;-67
2021/10/22 01:35:04;;;;;;;0.80;0.50;;;5.90;99.90;;;;;;5052126;28;20252;-67
2021/10/22 01:37:32;;;;;;;0.80;0.50;;;5.90;99.90;;;;;;5033635;28;20203;-68
2021/10/22 01:40:02;;;;;;;0.80;0.50;;;5.90;99.90;;;;;;5051898;28;20554;-67
2021/10/22 01:42:31;;;;;;;0.80;0.50;;;5.90;99.90;;;;;;5052473;28;20258;-67
2021/10/22 01:44:59;;;;;;;0.80;0.50;;;5.90;99.90;;;;;;5033995;28;20196;-67
2021/10/22 01:47:27;;;;;;;0.82;0.65;;;5.90;99.90;;;;;;5033889;28;20209;-68
2021/10/22 01:49:55;;;;;;;0.80;0.50;;;5.90;99.90;;;;;;5033866;28;20546;-68
2021/10/22 01:52:23;;;;;;;0.80;0.50;;;5.90;99.90;;;;;;5051362;28;20587;-69
2021/10/22 01:54:52;;;;;;;0.80;0.50;;;5.80;99.90;;;;;;5051558;28;20219;-68
2021/10/22 01:57:22;;;;;;;0.90;0.60;;;5.90;99.90;;;;;;5051520;28;20173;-68
2021/10/22 01:59:50;;;;;;;0.80;0.50;;;5.90;99.90;;;;;;5051399;28;20192;-69
2021/10/22 02:02:19;;;;;;;0.80;0.50;;;6.00;99.90;;;;;;5051258;28;20200;-68
2021/10/22 02:04:47;;;;;;;0.80;0.50;;;5.90;99.90;;;;;;5051004;28;20216;-67
2021/10/22 02:07:15;;;;;;;0.80;0.57;;;6.00;99.90;;;;;;5051516;28;20204;-67
2021/10/22 02:09:44;;;;;;;0.80;0.50;;;6.00;99.90;;;;;;5034002;28;20199;-68
2021/10/22 02:12:12;;;;;;;0.80;0.50;;;6.00;99.90;;;;;;5051556;28;20208;-67
2021/10/22 02:14:41;;;;;;;0.80;0.50;;;6.00;99.90;;;;;;5061921;28;20554;-65
2021/10/22 02:17:10;;;;;;;0.80;0.50;;;6.00;99.90;;;;;;5071659;28;20176;-66
2021/10/22 02:19:38;;;;;;;0.80;0.50;;;6.00;99.90;;;;;;5071322;28;20177;-67
2021/10/22 02:22:06;;;;;;;0.80;0.50;;;6.00;99.90;;;;;;5071663;28;20208;-69
2021/10/22 02:24:34;;;;;;;0.90;0.57;;;6.00;99.90;;;;;;5071163;28;20216;-67
2021/10/22 02:27:03;;;;;;;1.08;0.93;;;6.00;99.90;;;;;;5063570;28;20196;-67
2021/10/22 02:29:31;;;;;;;0.80;0.45;;;6.00;99.90;;;;;;5038394;28;20227;-68
2021/10/22 02:32:00;;;;;;;0.80;0.50;;;6.00;99.90;;;;;;5038250;28;20220;-69
2021/10/22 02:34:28;;;;;;;0.80;0.50;;;6.00;99.90;;;;;;5055735;28;20184;-68
2021/10/22 02:36:57;;;;;;;0.80;0.57;;;6.00;99.90;;;;;;5055384;28;20184;-68
2021/10/22 02:39:25;;;;;;;0.93;0.82;;;6.00;99.90;;;;;;5055319;28;20185;-68
2021/10/22 02:41:53;;;;;;;0.80;0.50;;;6.00;99.90;;;;;;5055162;28;20215;-68
2021/10/22 02:44:21;;;;;;;4.30;1.00;;;6.10;99.90;;;;;;5054893;28;20181;-66
2021/10/22 02:46:49;;;;;;;0.80;0.50;;;6.10;99.90;;;;;;5037401;28;20197;-66
2021/10/22 02:49:19;;;;;;;0.80;0.55;;;6.10;99.90;;;;;;5055101;28;20250;-66
2021/10/22 02:51:47;;;;;;;0.80;0.50;;;6.10;99.90;;;;;;5055034;28;20487;-67
2021/10/22 02:54:15;;;;;;;0.80;0.50;;;6.10;99.90;;;;;;5054884;28;20189;-68
2021/10/22 02:56:43;;;;;;;0.80;0.50;;;6.20;99.90;;;;;;5055049;28;20687;-68
2021/10/22 02:59:11;;;;;;;1.52;0.95;;;6.20;99.90;;;;;;5054667;28;20169;-68
2021/10/22 03:01:39;;;;;;;0.80;0.50;;;6.20;99.90;;;;;;5054479;28;20201;-68
2021/10/22 03:04:08;;;;;;;0.80;0.40;;;6.20;99.90;;;;;;5037019;28;20185;-68
2021/10/22 03:06:38;;;;;;;0.80;0.50;;;6.20;99.90;;;;;;5055025;28;20180;-67
2021/10/22 03:09:06;;;;;;;0.80;0.50;;;6.20;99.90;;;;;;5055022;28;20208;-67
2021/10/22 03:11:34;;;;;;;0.80;0.50;;;6.20;99.90;;;;;;5054545;28;20220;-66
2021/10/22 03:14:03;;;;;;;0.80;0.50;;;6.20;99.90;;;;;;5054745;28;20200;-67
2021/10/22 03:16:35;;;;;;;0.90;0.60;;;6.20;99.90;;;;;;5036543;28;20276;-68
2021/10/22 03:19:04;;;;;;;0.80;0.50;;;6.20;99.90;;;;;;5054612;28;20228;-67
2021/10/22 03:21:32;;;;;;;3.15;1.08;;;6.20;99.90;;;;;;5054099;28;20432;-70
2021/10/22 03:24:02;;;;;;;1.13;0.85;;;6.20;99.90;;;;;;5054340;28;20428;-68
2021/10/22 03:26:30;;;;;;;0.80;0.50;;;6.20;99.90;;;;;;5053449;28;20618;-67
2021/10/22 03:28:58;;;;;;;1.05;0.80;;;6.30;99.90;;;;;;5054128;28;20208;-67
2021/10/22 03:31:59;;;;;;;0.80;0.47;;;6.20;99.90;;;;;;5005157;28;20811;-68
2021/10/22 03:34:27;;;;;;;1.00;0.77;;;6.20;99.90;;;;;;5014669;28;20182;-69
2021/10/22 03:36:55;;;;;;;0.80;0.40;;;6.20;99.90;;;;;;5014396;28;20185;-67
2021/10/22 03:39:24;;;;;;;0.80;0.50;;;6.20;99.90;;;;;;5014606;28;20190;-69
2021/10/22 03:41:53;;;;;;;1.05;0.95;;;6.20;99.90;;;;;;5014163;28;20214;-69
2021/10/22 03:44:21;;;;;;;0.80;0.50;;;6.20;99.90;;;;;;5014497;28;20617;-69
2021/10/22 03:46:49;;;;;;;1.20;1.02;;;6.20;99.90;;;;;;5014111;28;20194;-69
2021/10/22 03:49:17;;;;;;;0.80;0.50;;;6.20;99.90;;;;;;5013966;28;20721;-68
2021/10/22 03:51:45;;;;;;;1.45;1.35;;;6.30;99.90;;;;;;5012838;28;20225;-67
2021/10/22 03:54:13;;;;;;;0.80;0.50;;;6.30;99.90;;;;;;5014065;28;20178;-66
2021/10/22 03:56:43;;;;;;;0.80;0.60;;;6.20;99.90;;;;;;5014086;28;20190;-67
2021/10/22 03:59:11;;;;;;;0.80;0.50;;;6.20;99.90;;;;;;5014175;28;20174;-68
2021/10/22 04:01:39;;;;;;;0.80;0.50;;;6.20;99.90;;;;;;5013676;28;20214;-69
2021/10/22 04:04:07;;;;;;;0.80;0.50;;;6.30;99.90;;;;;;5013669;28;20277;-67
2021/10/22 04:06:37;;;;;;;0.80;0.50;;;6.30;99.90;;;;;;5012445;28;20196;-67
2021/10/22 04:09:05;;;;;;;0.80;0.50;;;6.30;99.90;;;;;;5013954;28;20228;-68
2021/10/22 04:11:34;;;;;;;0.80;0.40;;;6.20;99.90;;;;;;5013899;28;20593;-68
2021/10/22 04:14:04;;;;;;;0.80;0.50;;;6.20;99.90;;;;;;5014034;28;20183;-67
2021/10/22 04:16:32;;;;;;;0.90;0.55;;;6.20;99.90;;;;;;5013936;28;20198;-67
2021/10/22 04:19:00;;;;;;;0.80;0.50;;;6.20;99.90;;;;;;5013469;28;20269;-67
2021/10/22 04:21:29;;;;;;;0.90;0.60;;;6.10;99.90;;;;;;5013428;28;20198;-67
2021/10/22 04:23:57;;;;;;;0.80;0.50;;;6.10;99.90;;;;;;5013457;28;20178;-68
2021/10/22 04:26:25;;;;;;;0.90;0.65;;;6.10;99.90;;;;;;5013338;28;20182;-68
2021/10/22 04:28:53;;;;;;;0.80;0.50;;;6.10;99.90;;;;;;5013093;28;20214;-68
2021/10/22 04:31:22;;;;;;;0.80;0.50;;;6.10;99.90;;;;;;5013003;28;20205;-67
2021/10/22 04:33:51;;;;;;;2.65;0.95;;;6.10;99.90;;;;;;5013398;28;20626;-68
2021/10/22 04:36:19;;;;;;;0.80;0.50;;;6.10;99.90;;;;;;5013244;28;20200;-67
2021/10/22 04:41:33;;;;;;;0.80;0.50;;;6.10;99.90;;;;;;5013496;28;20190;-67
2021/10/22 04:44:02;;;;;;;0.80;0.50;;;6.20;99.90;;;;;;5013700;28;20241;-68
2021/10/22 04:46:32;;;;;;;0.80;0.50;;;6.20;99.90;;;;;;5013022;28;20171;-68
2021/10/22 04:49:00;;;;;;;0.80;0.45;;;6.30;99.90;;;;;;5013080;28;20207;-68
2021/10/22 04:51:28;;;;;;;0.80;0.50;;;6.30;99.90;;;;;;5013286;28;20698;-67
2021/10/22 04:53:56;;;;;;;0.80;0.50;;;6.30;99.90;;;;;;5012784;28;20526;-68
2021/10/22 04:56:24;;;;;;;0.80;0.50;;;6.30;99.90;;;;;;5012645;28;20186;-66
2021/10/22 04:58:52;;;;;;;0.80;0.50;;;6.30;99.90;;;;;;5012654;28;20181;-67
2021/10/22 05:01:22;;;;;;;0.80;0.50;;;6.20;99.90;;;;;;5012723;28;20182;-69
2021/10/22 05:03:52;;;;;;;0.80;0.50;;;6.20;99.90;;;;;;5013123;28;20213;-66
2021/10/22 05:06:20;;;;;;;0.80;0.50;;;6.10;99.90;;;;;;5013145;28;20281;-68
2021/10/22 05:08:48;;;;;;;0.80;0.50;;;6.10;99.90;;;;;;5013147;28;20244;-67
2021/10/22 05:11:16;;;;;;;1.23;0.60;;;6.10;99.90;;;;;;5012205;28;20194;-68
2021/10/22 05:13:44;;;;;;;0.80;0.50;;;6.10;99.90;;;;;;5014206;28;20628;-67
2021/10/22 05:16:12;;;;;;;0.80;0.50;;;6.10;99.90;;;;;;5013778;28;20190;-67
2021/10/22 05:18:40;;;;;;;0.80;0.50;;;6.10;99.90;;;;;;5014329;28;20189;-67
2021/10/22 05:21:11;;;;;;;0.80;0.50;;;6.10;99.90;;;;;;5012804;28;20584;-67
2021/10/22 05:23:39;;;;;;;0.80;0.50;;;6.10;99.90;;;;;;5014744;28;20301;-67
2021/10/22 05:26:07;;;;;;;0.80;0.50;;;6.10;99.90;;;;;;4996203;28;20226;-68
2021/10/22 05:28:35;;;;;;;0.80;0.50;;;6.10;99.90;;;;;;5012952;28;20190;-68
2021/10/22 05:31:03;;;;;;;0.80;0.50;;;6.10;99.90;;;;;;5012567;28;20201;-67
2021/10/22 05:33:31;;;;;;;0.80;0.50;;;6.10;99.90;;;;;;5012357;28;20209;-66
2021/10/22 05:35:59;;;;;;;0.80;0.50;;;6.00;99.90;;;;;;5012008;28;20201;-67
2021/10/22 05:38:29;;;;;;;0.80;0.50;;;6.00;99.90;;;;;;5012244;28;20525;-67
2021/10/22 05:40:57;;;;;;;0.80;0.50;;;6.00;99.90;;;;;;5012154;28;20225;-67
2021/10/22 05:43:25;;;;;;;0.80;0.50;;;5.90;99.90;;;;;;5012290;28;20214;-68
2021/10/22 05:45:54;;;;;;;0.80;0.50;;;5.90;99.90;;;;;;5011886;28;20213;-67
2021/10/22 05:48:22;;;;;;;4.50;1.30;;;5.90;99.90;;;;;;5012837;28;20206;-67
2021/10/22 05:50:50;;;;;;;0.80;0.50;;;6.00;99.90;;;;;;5011904;28;20265;-66
2021/10/22 05:53:18;;;;;;;0.80;0.50;;;6.00;99.90;;;;;;5012391;28;20206;-66
2021/10/22 05:55:47;;;;;;;1.05;0.60;;;6.00;99.90;;;;;;5012155;28;20194;-67
2021/10/22 05:58:16;;;;;;;0.80;0.50;;;6.00;99.90;;;;;;5010737;28;20628;-68
2021/10/22 06:00:44;;;;;;;0.80;0.50;;;6.00;99.90;;;;;;5012649;28;20559;-69
2021/10/22 06:03:13;;;;;;;0.80;0.50;;;6.10;99.90;;;;;;5012338;28;20202;-67
2021/10/22 06:05:42;;;;;;;0.80;0.50;;;6.10;99.90;;;;;;5011655;28;20191;-68
2021/10/22 06:08:10;;;;;;;0.80;0.50;;;6.20;99.90;;;;;;5012657;28;20225;-68
2021/10/22 06:10:38;;;;;;;0.80;0.50;;;6.30;99.90;;;;;;5011694;28;20217;-67
2021/10/22 06:13:08;;;;;;;0.80;0.50;;;6.40;99.90;;;;;;5012026;28;20284;-68
2021/10/22 06:15:38;;;;;;;0.80;0.50;;;6.50;99.90;;;;;;5011696;28;20281;-68
2021/10/22 06:18:07;;;;;;;0.80;0.50;;;6.60;99.90;;;;;;5007085;28;20253;-68
2021/10/22 06:20:43;;;;;;;0.80;0.50;;;6.70;99.90;;;;;;5011072;28;20233;-69
2021/10/22 06:25:57;;;;;;;3.60;1.45;;;6.80;99.90;;;;;;5001889;28;20213;-69
2021/10/22 06:28:26;;;;;;;0.90;0.60;;;6.80;99.90;;;;;;5012275;28;20659;-69
2021/10/22 06:30:55;;;;;;;0.80;0.50;;;6.90;99.90;;;;;;5011472;28;20210;-68
2021/10/22 06:33:23;;;;;;;0.90;0.70;;;7.00;99.90;;;;;;5011730;28;20210;-68
2021/10/22 06:35:54;;;;;;;0.80;0.47;;;7.00;99.90;;;;;;5012057;28;20218;-68
2021/10/22 06:38:23;;;;;;;0.85;0.55;;;7.00;99.90;;;;;;5012313;28;20187;-67
2021/10/22 06:40:54;;;;;;;0.80;0.50;;;7.10;99.90;;;;;;5011855;28;20182;-67
2021/10/22 06:43:22;;;;;;;0.80;0.50;;;7.20;99.90;;;;;;5012143;28;20221;-68
2021/10/22 06:45:52;;;;;;;0.80;0.60;;;7.20;99.90;;;;;;5011963;28;20501;-68
2021/10/22 06:48:21;;;;;;;0.90;0.73;;;7.30;99.90;;;;;;5006600;28;20644;-69
2021/10/22 06:50:49;;;;;;;0.90;0.50;;;7.30;99.90;;;;;;5003466;28;20202;-69
2021/10/22 06:53:17;;;;;;;0.80;0.55;;;7.40;99.90;;;;;;4997741;28;20237;-67
2021/10/22 06:55:45;;;;;;;1.67;1.58;;;7.40;99.90;;;;;;4994239;28;20233;-69
2021/10/22 06:58:14;;;;;;;0.80;0.50;;;7.50;99.90;;;;;;5014196;28;20264;-68
2021/10/22 07:00:45;;;;;;;0.90;0.70;;;7.50;99.90;;;;;;4999715;28;20198;-68
2021/10/22 07:03:19;;;;;;;0.90;0.60;;;7.50;99.90;;;;;;5003931;28;20565;-68
2021/10/22 07:06:01;;;;;;;0.80;0.50;;;7.60;99.90;;;;;;5006800;28;20253;-69
2021/10/22 07:08:28;;;;;;;0.80;0.50;;;7.60;99.90;;;;;;5012258;28;20254;-68
2021/10/22 07:10:57;;;;;;;0.80;0.50;;;7.60;99.90;;;;;;5007462;28;20773;-67
2021/10/22 07:13:25;;;;;;;0.82;0.55;;;7.70;99.90;;;;;;5008766;28;20218;-67
2021/10/22 07:15:54;;;;;;;1.75;0.80;;;7.80;99.90;;;;;;5003571;28;20190;-68
2021/10/22 07:18:24;;;;;;;0.82;0.55;;;7.80;99.90;;;;;;5010876;28;20372;-68
2021/10/22 07:20:53;;;;;;;0.80;0.50;;;7.90;99.90;;;;;;4999084;28;20671;-68
2021/10/22 07:23:22;;;;;;;0.80;0.50;;;7.90;99.90;;;;;;4995303;28;20225;-68
2021/10/22 07:25:50;;;;;;;0.85;0.57;;;8.00;99.90;;;;;;4994985;28;20206;-67
2021/10/22 07:28:18;;;;;;;0.80;0.50;;;8.10;99.90;;;;;;4983843;28;20198;-68
2021/10/22 07:30:48;;;;;;;0.90;0.60;;;8.00;99.90;;;;;;5014304;28;20265;-67
2021/10/22 07:33:16;;;;;;;1.15;1.05;;;8.10;99.90;;;;;;5014623;28;20220;-69
2021/10/22 07:35:46;;;;;;;0.90;0.75;;;8.10;99.90;;;;;;5014254;28;20237;-69
2021/10/22 07:38:14;;;;;;;0.80;0.47;;;8.00;99.90;;;;;;4998732;28;20197;-68
2021/10/22 07:40:44;;;;;;;0.80;0.50;;;8.10;99.90;;;;;;5020420;28;20194;-68
2021/10/22 07:43:13;;;;;;;0.80;0.50;;;8.10;99.90;;;;;;5009614;28;20617;-68
2021/10/22 07:45:42;;;;;;;0.80;0.50;;;8.10;99.90;;;;;;4994228;28;20242;-68
2021/10/22 07:48:11;;;;;;;0.80;0.50;;;8.10;99.90;;;;;;4998382;28;20187;-68
2021/10/22 07:50:40;;;;;;;0.80;0.40;;;8.20;99.90;;;;;;5012797;28;20206;-67
2021/10/22 07:53:10;;;;;;;0.80;0.40;;;8.20;99.90;;;;;;4994379;28;20206;-68
2021/10/22 07:55:38;;;;;;;0.80;0.50;;;8.20;99.90;;;;;;4995018;28;20534;-68
2021/10/22 07:58:06;;;;;;;0.80;0.50;;;8.30;99.90;;;;;;4999177;28;20209;-69
2021/10/22 08:00:34;;;;;;;0.80;0.50;;;8.30;99.90;;;;;;5023822;28;20205;-69
2021/10/22 08:03:03;;;;;;;0.80;0.50;;;8.30;99.90;;;;;;5000753;28;20210;-68
2021/10/22 08:05:31;;;;;;;0.80;0.60;;;8.20;99.90;;;;;;4998105;28;20199;-68
2021/10/22 08:08:01;;;;;;;1.40;0.93;;;8.20;99.90;;;;;;5013733;28;20208;-68
2021/10/22 08:10:30;;;;;;;0.95;0.85;;;8.20;99.90;;;;;;5003493;28;20578;-67
2021/10/22 08:12:59;;;;;;;0.90;0.50;;;8.20;99.90;;;;;;4999039;28;20222;-67
2021/10/22 08:15:39;;;;;;;0.80;0.50;;;8.20;99.90;;;;;;5010100;28;20205;-67
2021/10/22 08:18:09;;;;;;;0.80;0.50;;;8.20;99.90;;;;;;5004542;28;20241;-67
2021/10/22 08:20:39;;;;;;;0.80;0.40;;;8.30;99.90;;;;;;5000070;28;20675;-68
2021/10/22 08:23:07;;;;;;;0.85;0.60;;;8.30;99.90;;;;;;4993765;28;20206;-66
2021/10/22 08:25:37;;;;;;;0.90;0.60;;;8.30;99.90;;;;;;4994000;28;20600;-67
2021/10/22 08:28:05;;;;;;;0.80;0.50;;;8.30;99.90;;;;;;4999280;28;20646;-67
2021/10/22 08:30:33;;;;;;;0.80;0.50;;;8.30;99.90;;;;;;5013530;28;20248;-68
2021/10/22 08:33:01;;;;;;;0.93;0.50;;;8.40;99.90;;;;;;5008576;28;20230;-67
2021/10/22 08:35:30;;;;;;;0.90;0.60;;;8.40;99.90;;;;;;4994083;28;20269;-67
2021/10/22 08:38:00;;;;;;;0.80;0.50;;;8.40;99.90;;;;;;4997723;28;20202;-68
2021/10/22 08:40:29;;;;;;;5.07;0.70;;;8.40;99.90;;;;;;5014362;28;20182;-68
2021/10/22 08:42:58;;;;;;;0.90;0.50;;;8.50;99.90;;;;;;5014451;28;20209;-67
2021/10/22 08:45:26;;;;;;;0.98;0.63;;;8.60;99.90;;;;;;5013969;28;20186;-67
2021/10/22 08:47:57;;;;;;;0.90;0.60;;;8.70;99.90;;;;;;5016443;28;20198;-68
2021/10/22 08:50:26;;;;;;;1.55;1.45;;;8.80;99.90;;;;;;4997181;28;20210;-67
2021/10/22 08:52:54;;;;;;;0.85;0.50;;;8.90;99.90;;;;;;4997496;28;20214;-67
2021/10/22 08:55:22;;;;;;;0.95;0.57;;;9.00;99.90;;;;;;4997617;28;20234;-67
2021/10/22 08:57:52;;;;;;;0.80;0.50;;;9.00;99.90;;;;;;4997739;28;20229;-65
2021/10/22 09:00:24;;;;;;;0.80;0.50;;;9.00;99.90;;;;;;5036971;28;20189;-67
2021/10/22 09:02:53;;;;;;;0.88;0.52;;;9.00;99.90;;;;;;5001608;28;20246;-67
2021/10/22 09:05:24;;;;;;;1.60;1.50;;;9.20;99.90;;;;;;4994647;28;20193;-67
2021/10/22 09:07:58;;;;;;;0.80;0.50;;;9.30;99.90;;;;;;5007339;28;20204;-68
2021/10/22 09:10:28;;;;;;;0.82;0.50;;;9.40;99.90;;;;;;4999018;28;20190;-67
2021/10/22 09:12:58;;;;;;;0.80;0.50;;;9.40;99.90;;;;;;4999604;28;20214;-67
2021/10/22 09:15:29;;;;;;;1.08;0.80;;;9.50;99.90;;;;;;5002206;28;20512;-68
2021/10/22 09:17:58;;;;;;;0.82;0.50;;;9.70;99.90;;;;;;4997806;28;20722;-68
2021/10/22 09:20:28;;;;;;;0.80;0.50;;;9.70;99.90;;;;;;5019338;28;20279;-70
2021/10/22 09:22:58;;;;;;;0.90;0.70;;;9.70;99.90;;;;;;5011877;28;20205;-68
2021/10/22 09:25:29;;;;;;;0.80;0.50;;;9.80;99.90;;;;;;5011237;28;20946;-67
2021/10/22 09:27:58;;;;;;;2.30;0.70;;;9.80;99.90;;;;;;5006087;28;20484;-69
2021/10/22 09:30:38;;;;;;;0.80;0.53;;;9.70;99.90;;;;;;5056424;23;20482;-72
2021/10/22 09:33:14;;;;;;;1.33;0.50;;;9.80;99.90;;;;;;5084169;28;20422;-72
2021/10/22 09:35:44;;;;;;;0.80;0.40;;;9.70;99.90;;;;;;5092513;28;20681;-72
2021/10/22 09:38:19;;;;;;;0.80;0.60;;;9.50;99.90;;;;;;5088589;28;20172;-72
2021/10/22 09:40:50;;;;;;;0.80;0.50;;;9.60;99.90;;;;;;5073736;28;20272;-72
2021/10/22 09:43:24;;;;;;;0.80;0.50;;;9.60;99.90;;;;;;5063013;28;20196;-73
2021/10/22 09:46:08;;;;;;;0.90;0.60;;;9.70;99.90;;;;;;5081958;28;20448;-73
2021/10/22 09:48:37;;;;;;;0.80;0.60;;;9.70;99.90;;;;;;5062545;28;20430;-73
2021/10/22 09:51:25;;;;;;;0.80;0.50;;;9.70;99.90;;;;;;5072247;28;20562;-72
2021/10/22 09:53:54;;;;;;;1.77;0.60;;;9.80;99.90;;;;;;5072342;28;20192;-72
2021/10/22 09:56:24;;;;;;;0.80;0.50;;;9.90;99.90;;;;;;5072364;28;20429;-73
2021/10/22 09:59:03;;;;;;;0.80;0.50;;;9.90;99.90;;;;;;5072757;28;20906;-71
2021/10/22 10:01:35;;;;;;;3.07;2.80;;;9.80;99.90;;;;;;5084619;28;20290;-73
2021/10/22 10:04:05;;;;;;;2.20;1.00;;;9.60;99.90;;;;;;5092105;28;20616;-73
2021/10/22 10:06:36;;;;;;;0.90;0.50;;;9.50;99.90;;;;;;5092209;28;20266;-73
2021/10/22 10:09:06;;;;;;;0.90;0.63;;;9.40;99.90;;;;;;5091944;28;20211;-73
2021/10/22 10:11:35;;;;;;;0.90;0.52;;;9.40;99.90;;;;;;5079586;28;20735;-73
2021/10/22 10:14:03;;;;;;;0.90;0.60;;;9.60;99.90;;;;;;5072165;28;20230;-73
2021/10/22 10:16:35;;;;;;;0.90;0.60;;;9.60;99.90;;;;;;5071872;28;20421;-73
2021/10/22 10:19:05;;;;;;;0.80;0.50;;;9.60;99.90;;;;;;5072499;28;20187;-74
2021/10/22 10:21:35;;;;;;;1.45;1.35;;;9.60;99.90;;;;;;5072184;28;21036;-73
2021/10/22 10:24:05;;;;;;;0.80;0.50;;;9.60;99.90;;;;;;5072379;28;20644;-73
2021/10/22 10:26:35;;;;;;;0.90;0.50;;;9.50;99.90;;;;;;5072445;28;20187;-73
2021/10/22 10:29:07;;;;;;;0.80;0.50;;;9.50;99.90;;;;;;5071941;28;20208;-74
2021/10/22 10:31:40;;;;;;;0.80;0.50;;;9.60;99.90;;;;;;5054126;28;20234;-73
2021/10/22 10:34:43;;;;;;;0.80;0.50;;;9.60;99.90;;;;;;5071699;28;20177;-72
2021/10/22 10:37:27;;;;;;;1.00;0.50;;;9.60;99.90;;;;;;5074593;28;20539;-73
2021/10/22 10:40:05;;;;;;;0.80;0.50;;;9.60;99.90;;;;;;5074833;28;20266;-72
2021/10/22 10:42:38;;;;;;;1.67;1.58;;;9.70;99.90;;;;;;5075472;28;20172;-73
2021/10/22 10:45:09;;;;;;;0.80;0.50;;;9.70;99.90;;;;;;5089479;28;20186;-74
2021/10/22 10:47:43;;;;;;;0.80;0.55;;;9.70;99.90;;;;;;5094750;28;20179;-74
2021/10/22 10:50:14;;;;;;;0.80;0.50;;;9.60;99.90;;;;;;5075514;28;20217;-73
2021/10/22 10:53:00;;;;;;;0.80;0.50;;;9.60;99.90;;;;;;5075777;28;20192;-73
2021/10/22 10:55:32;;;;;;;0.80;0.50;;;9.50;99.90;;;;;;5075606;28;20173;-73
2021/10/22 10:58:19;;;;;;;0.90;0.50;;;9.60;99.90;;;;;;5073756;28;20646;-73
2021/10/22 11:00:50;;;;;;;0.80;0.50;;;9.60;99.90;;;;;;5055314;28;20209;-73
2021/10/22 11:03:28;;;;;;;0.80;0.50;;;9.50;99.90;;;;;;5055594;28;20382;-72
2021/10/22 11:06:07;;;;;;;0.80;0.50;;;9.50;99.90;;;;;;5055488;28;20181;-73
2021/10/22 11:08:51;;;;;;;0.80;0.40;;;9.50;99.90;;;;;;5055388;28;20177;-72
2021/10/22 11:11:33;;;;;;;0.90;0.63;;;9.50;99.90;;;;;;5055519;28;20213;-73
2021/10/22 11:14:19;;;;;;;0.80;0.50;;;9.50;99.90;;;;;;5055934;28;20411;-73
2021/10/22 11:16:56;;;;;;;0.90;0.60;;;9.50;99.90;;;;;;5055379;28;20180;-73
2021/10/22 11:19:32;;;;;;;0.80;0.50;;;9.60;99.90;;;;;;5054663;28;20187;-73
2021/10/22 11:22:02;;;;;;;0.80;0.50;;;9.50;99.90;;;;;;5055134;28;20177;-73
2021/10/22 11:24:32;;;;;;;0.80;0.50;;;9.60;99.90;;;;;;5054995;28;20408;-73
2021/10/22 11:27:05;;;;;;;1.85;0.73;;;9.70;99.90;;;;;;5054812;28;20196;-72
2021/10/22 11:29:34;;;;;;;0.90;0.67;;;9.70;99.90;;;;;;5069265;28;20188;-74
2021/10/22 11:32:09;;;;;;;1.53;1.03;;;9.70;99.90;;;;;;5075027;28;20990;-73
2021/10/22 11:34:41;;;;;;;0.90;0.60;;;9.70;99.90;;;;;;5074539;28;20406;-73
2021/10/22 11:37:12;;;;;;;0.80;0.50;;;9.70;99.90;;;;;;5084421;28;20186;-73
2021/10/22 11:39:42;;;;;;;0.80;0.50;;;9.80;99.90;;;;;;5096872;28;20209;-73
2021/10/22 11:42:21;;;;;;;1.00;0.60;;;9.80;99.90;;;;;;5097336;28;20254;-73
2021/10/22 11:44:52;;;;;;;0.80;0.50;;;9.80;99.90;;;;;;5078745;28;20857;-72
2021/10/22 11:47:21;;;;;;;2.35;0.70;;;9.90;99.90;;;;;;5096126;28;20398;-72
2021/10/22 11:49:53;;;;;;;0.80;0.50;;;10.00;99.90;;;;;;5080727;28;20262;-73
2021/10/22 11:52:21;;;;;;;0.80;0.50;;;10.10;99.90;;;;;;5076590;28;20519;-73
2021/10/22 11:54:50;;;;;;;0.80;0.47;;;10.10;99.90;;;;;;5075778;28;20422;-73
2021/10/22 11:57:21;;;;;;;0.80;0.50;;;10.20;99.90;;;;;;5076053;28;20477;-75
2021/10/22 11:59:54;;;;;;;0.80;0.50;;;10.10;99.90;;;;;;5078027;28;20959;-73
2021/10/22 12:02:26;;;;;;;0.80;0.50;;;10.10;99.90;;;;;;5076929;28;20437;-74
2021/10/22 12:05:01;;;;;;;0.80;0.50;;;10.00;99.90;;;;;;5080444;28;20414;-74
2021/10/22 12:07:31;;;;;;;0.93;0.77;;;10.00;99.90;;;;;;5074471;28;20180;-73
2021/10/22 12:10:01;;;;;;;1.25;0.60;;;10.00;99.90;;;;;;5073976;28;20442;-73
2021/10/22 12:12:35;;;;;;;1.45;1.35;;;10.00;99.90;;;;;;5073391;28;20196;-73
2021/10/22 12:15:04;;;;;;;0.80;0.50;;;10.00;99.90;;;;;;5073994;28;20247;-73
2021/10/22 12:17:37;;;;;;;1.10;0.60;;;10.00;99.90;;;;;;5073816;28;20755;-73
2021/10/22 12:20:08;;;;;;;0.80;0.50;;;10.10;99.90;;;;;;5073656;28;20416;-74
2021/10/22 12:22:38;;;;;;;0.90;0.75;;;10.00;99.90;;;;;;5073695;28;20815;-73
2021/10/22 12:25:18;;;;;;;1.20;0.77;;;10.00;99.90;;;;;;5073545;28;20181;-73
2021/10/22 12:27:51;;;;;;;3.08;0.60;;;10.00;99.90;;;;;;5055758;28;20654;-73
2021/10/22 12:30:21;;;;;;;0.80;0.50;;;10.00;99.90;;;;;;5073597;28;20216;-73
2021/10/22 12:32:51;;;;;;;0.80;0.50;;;10.10;99.90;;;;;;5073283;28;20299;-73
2021/10/22 12:35:28;;;;;;;0.82;0.55;;;10.00;99.90;;;;;;5054703;28;20212;-73
2021/10/22 12:38:06;;;;;;;0.80;0.50;;;10.00;99.90;;;;;;5073167;28;20183;-73
2021/10/22 12:40:39;;;;;;;1.00;0.70;;;10.10;99.90;;;;;;5073203;28;20476;-73
2021/10/22 12:43:27;;;;;;;0.90;0.50;;;10.10;99.90;;;;;;5073522;28;20398;-73
2021/10/22 12:45:59;;;;;;;0.80;0.50;;;10.10;99.90;;;;;;5073221;28;20188;-73
2021/10/22 12:48:30;;;;;;;0.80;0.50;;;10.20;99.90;;;;;;5073667;28;20433;-74
2021/10/22 12:51:08;;;;;;;1.00;0.57;;;10.20;99.90;;;;;;5073364;28;20442;-73
2021/10/22 12:53:40;;;;;;;0.83;0.57;;;10.30;99.90;;;;;;5073633;28;20480;-73
2021/10/22 12:56:11;;;;;;;0.80;0.50;;;10.30;99.90;;;;;;5073097;28;20398;-73
2021/10/22 12:58:40;;;;;;;0.80;0.50;;;10.30;99.90;;;;;;5073601;28;20414;-73
2021/10/22 13:01:14;;;;;;;0.90;0.60;;;10.30;99.90;;;;;;5072851;28;20702;-73
2021/10/22 13:03:45;;;;;;;0.80;0.50;;;10.30;99.90;;;;;;5073073;28;20382;-73
2021/10/22 13:06:28;;;;;;;0.80;0.50;;;10.30;99.90;;;;;;5054716;28;20427;-73
2021/10/22 13:09:05;;;;;;;1.27;0.97;;;10.30;99.90;;;;;;5072708;28;20194;-72
2021/10/22 13:11:46;;;;;;;2.28;0.70;;;10.30;99.90;;;;;;5073066;28;20798;-73
2021/10/22 13:22:34;;;;;;;0.80;0.50;;;9.80;99.90;;;;;;5073187;28;20194;-73
2021/10/22 13:25:02;;;;;;;0.80;0.50;;;9.60;99.90;;;;;;5072794;28;20189;-74